Terminal Aerodrome Forecast
Issued by NWS La Crosse, WI

Home | Current Version | Previous Version | Text Only | Print | Product List | Glossary On
Versions: 1 2 3 4 5 6 7 8 9 10 11 12 13 14 15 16 17 18 19 20 21 22
000
FTUS43 KARX 281730
TAFLSE
TAF
KLSE 281730Z 2818/0118 17008KT P6SM FEW250
     FM010000 17006KT P6SM SCT035 BKN070
     FM010600 18006KT P6SM OVC025
     FM011400 22008KT P6SM SCT025=

USA.gov is the U.S. government's official web portal to all federal, state and local government web resources and services.